sensor_id;sensor_type;location;lat;lon;timestamp;temperature;humidity
12374;DHT22;6251;51.762;8.660;2023-04-06T01:03:39;0.40;99.90
12374;DHT22;6251;51.762;8.660;2023-04-06T01:13:39;0.30;99.90
12374;DHT22;6251;51.762;8.660;2023-04-06T02:55:13;-0.60;99.90
12374;DHT22;6251;51.762;8.660;2023-04-06T04:06:16;-1.10;99.90
12374;DHT22;6251;51.762;8.660;2023-04-06T04:16:17;-1.10;99.90
12374;DHT22;6251;51.762;8.660;2023-04-06T04:26:18;-1.20;99.90
12374;DHT22;6251;51.762;8.660;2023-04-06T04:36:18;-1.30;99.90
12374;DHT22;6251;51.762;8.660;2023-04-06T04:46:19;-1.20;99.90
12374;DHT22;6251;51.762;8.660;2023-04-06T04:56:19;-1.40;99.90
12374;DHT22;6251;51.762;8.660;2023-04-06T05:06:20;-1.30;99.90
12374;DHT22;6251;51.762;8.660;2023-04-06T05:16:21;-1.30;99.90
12374;DHT22;6251;51.762;8.660;2023-04-06T05:26:21;-1.30;99.90
12374;DHT22;6251;51.762;8.660;2023-04-06T05:36:22;-1.30;99.90
12374;DHT22;6251;51.762;8.660;2023-04-06T05:46:23;-1.10;99.90
12374;DHT22;6251;51.762;8.660;2023-04-06T05:56:23;-1.00;99.90
12374;DHT22;6251;51.762;8.660;2023-04-06T06:06:25;-0.70;99.90
12374;DHT22;6251;51.762;8.660;2023-04-06T06:16:27;-0.60;99.90
12374;DHT22;6251;51.762;8.660;2023-04-06T06:26:28;-0.40;99.90
12374;DHT22;6251;51.762;8.660;2023-04-06T06:36:29;-0.10;99.90
12374;DHT22;6251;51.762;8.660;2023-04-06T06:46:31;0.20;99.90
12374;DHT22;6251;51.762;8.660;2023-04-06T06:56:31;0.60;99.90
12374;DHT22;6251;51.762;8.660;2023-04-06T07:06:32;1.00;99.90
12374;DHT22;6251;51.762;8.660;2023-04-06T07:16:32;1.50;99.90
12374;DHT22;6251;51.762;8.660;2023-04-06T07:26:33;2.00;99.90
12374;DHT22;6251;51.762;8.660;2023-04-06T07:36:34;2.60;99.90
12374;DHT22;6251;51.762;8.660;2023-04-06T07:46:34;3.20;99.90
12374;DHT22;6251;51.762;8.660;2023-04-06T07:56:36;3.80;99.90
12374;DHT22;6251;51.762;8.660;2023-04-06T08:06:36;4.60;99.90
12374;DHT22;6251;51.762;8.660;2023-04-06T08:16:37;5.30;99.90
12374;DHT22;6251;51.762;8.660;2023-04-06T08:26:38;5.80;99.90
12374;DHT22;6251;51.762;8.660;2023-04-06T08:36:38;6.30;99.90
12374;DHT22;6251;51.762;8.660;2023-04-06T08:46:39;6.70;99.90
12374;DHT22;6251;51.762;8.660;2023-04-06T08:56:40;7.10;99.90
12374;DHT22;6251;51.762;8.660;2023-04-06T09:06:57;7.50;99.90
12374;DHT22;6251;51.762;8.660;2023-04-06T09:16:57;8.00;99.90
12374;DHT22;6251;51.762;8.660;2023-04-06T09:26:58;8.40;99.90
12374;DHT22;6251;51.762;8.660;2023-04-06T09:36:58;8.70;99.90
12374;DHT22;6251;51.762;8.660;2023-04-06T09:46:59;9.00;99.90
12374;DHT22;6251;51.762;8.660;2023-04-06T09:57:10;9.20;99.90
12374;DHT22;6251;51.762;8.660;2023-04-06T10:07:12;9.50;99.90
12374;DHT22;6251;51.762;8.660;2023-04-06T10:17:13;9.90;99.90
12374;DHT22;6251;51.762;8.660;2023-04-06T10:27:14;10.10;99.90
12374;DHT22;6251;51.762;8.660;2023-04-06T10:37:15;10.40;99.90
12374;DHT22;6251;51.762;8.660;2023-04-06T10:47:17;10.60;99.90
12374;DHT22;6251;51.762;8.660;2023-04-06T10:57:28;10.70;99.90
12374;DHT22;6251;51.762;8.660;2023-04-06T11:07:29;11.00;99.70
12374;DHT22;6251;51.762;8.660;2023-04-06T11:17:35;11.20;99.90
12374;DHT22;6251;51.762;8.660;2023-04-06T11:27:36;11.50;98.10
12374;DHT22;6251;51.762;8.660;2023-04-06T11:37:37;11.80;98.40
12374;DHT22;6251;51.762;8.660;2023-04-06T11:47:37;12.00;93.60
12374;DHT22;6251;51.762;8.660;2023-04-06T11:57:38;12.20;94.00
12374;DHT22;6251;51.762;8.660;2023-04-06T12:07:39;12.50;92.60
12374;DHT22;6251;51.762;8.660;2023-04-06T12:17:40;12.60;91.10
12374;DHT22;6251;51.762;8.660;2023-04-06T12:27:40;12.80;87.30
12374;DHT22;6251;51.762;8.660;2023-04-06T12:37:41;13.00;90.40
12374;DHT22;6251;51.762;8.660;2023-04-06T12:47:42;13.20;93.20
12374;DHT22;6251;51.762;8.660;2023-04-06T12:57:44;13.30;90.90
12374;DHT22;6251;51.762;8.660;2023-04-06T13:07:45;13.60;89.10
12374;DHT22;6251;51.762;8.660;2023-04-06T13:18:06;13.80;85.00
12374;DHT22;6251;51.762;8.660;2023-04-06T13:28:07;14.20;90.30
12374;DHT22;6251;51.762;8.660;2023-04-06T13:38:08;14.50;87.50
12374;DHT22;6251;51.762;8.660;2023-04-06T13:48:08;14.80;84.90
12374;DHT22;6251;51.762;8.660;2023-04-06T13:58:09;15.10;80.10
12374;DHT22;6251;51.762;8.660;2023-04-06T14:08:10;15.10;89.00
12374;DHT22;6251;51.762;8.660;2023-04-06T14:18:11;15.00;83.70
12374;DHT22;6251;51.762;8.660;2023-04-06T14:28:11;15.00;84.20
12374;DHT22;6251;51.762;8.660;2023-04-06T14:38:12;15.00;86.30
12374;DHT22;6251;51.762;8.660;2023-04-06T14:48:13;15.20;80.00
12374;DHT22;6251;51.762;8.660;2023-04-06T14:58:16;15.30;84.00
12374;DHT22;6251;51.762;8.660;2023-04-06T15:08:16;15.60;82.70
12374;DHT22;6251;51.762;8.660;2023-04-06T15:18:18;15.40;83.90
12374;DHT22;6251;51.762;8.660;2023-04-06T15:28:18;15.30;85.80
12374;DHT22;6251;51.762;8.660;2023-04-06T15:38:19;15.20;83.10
12374;DHT22;6251;51.762;8.660;2023-04-06T15:48:21;15.10;83.10
12374;DHT22;6251;51.762;8.660;2023-04-06T15:58:22;14.80;79.10
12374;DHT22;6251;51.762;8.660;2023-04-06T16:08:24;14.70;85.90
12374;DHT22;6251;51.762;8.660;2023-04-06T16:18:24;14.40;89.60
12374;DHT22;6251;51.762;8.660;2023-04-06T16:28:25;14.20;89.90
12374;DHT22;6251;51.762;8.660;2023-04-06T16:38:25;14.10;91.20
12374;DHT22;6251;51.762;8.660;2023-04-06T16:48:33;13.90;92.30
12374;DHT22;6251;51.762;8.660;2023-04-06T16:58:34;13.80;91.00
12374;DHT22;6251;51.762;8.660;2023-04-06T17:08:34;13.50;91.70
12374;DHT22;6251;51.762;8.660;2023-04-06T17:18:35;13.20;94.10
12374;DHT22;6251;51.762;8.660;2023-04-06T17:28:36;12.90;95.90
12374;DHT22;6251;51.762;8.660;2023-04-06T17:38:37;12.50;94.30
12374;DHT22;6251;51.762;8.660;2023-04-06T17:48:42;12.10;95.10
12374;DHT22;6251;51.762;8.660;2023-04-06T17:59:07;11.70;95.90
12374;DHT22;6251;51.762;8.660;2023-04-06T18:09:10;11.40;95.50
12374;DHT22;6251;51.762;8.660;2023-04-06T18:19:11;11.20;99.40
12374;DHT22;6251;51.762;8.660;2023-04-06T18:29:12;10.90;99.20
12374;DHT22;6251;51.762;8.660;2023-04-06T18:39:13;10.70;99.90
12374;DHT22;6251;51.762;8.660;2023-04-06T18:49:14;10.60;96.70
12374;DHT22;6251;51.762;8.660;2023-04-06T18:59:14;10.50;95.20
12374;DHT22;6251;51.762;8.660;2023-04-06T19:09:29;10.50;96.80
12374;DHT22;6251;51.762;8.660;2023-04-06T19:19:29;10.50;98.30
12374;DHT22;6251;51.762;8.660;2023-04-06T19:29:30;10.40;97.60
12374;DHT22;6251;51.762;8.660;2023-04-06T19:39:58;10.30;98.00
12374;DHT22;6251;51.762;8.660;2023-04-06T19:49:59;10.10;97.80
12374;DHT22;6251;51.762;8.660;2023-04-06T19:59:59;10.10;99.10
12374;DHT22;6251;51.762;8.660;2023-04-06T20:10:00;10.00;99.50
12374;DHT22;6251;51.762;8.660;2023-04-06T20:20:04;9.90;99.90
12374;DHT22;6251;51.762;8.660;2023-04-06T20:30:05;9.80;99.50
12374;DHT22;6251;51.762;8.660;2023-04-06T20:40:06;9.80;99.90
12374;DHT22;6251;51.762;8.660;2023-04-06T20:50:07;9.60;99.90
12374;DHT22;6251;51.762;8.660;2023-04-06T23:03:12;8.60;99.90
12374;DHT22;6251;51.762;8.660;2023-04-06T23:13:12;8.50;99.90
